Time;durP1;ratioP1;P1;durP2;ratioP2;P2;SDS_P1;SDS_P2;PMS_P1;PMS_P2;Temp;Humidity;BMP_temperature;BMP_pressure;BME280_temperature;BME280_humidity;BME280_pressure;Samples;Min_cycle;Max_cycle;Signal;HPM_P1;HPM_P2
2023/02/22 00:03:14;;;;;;;18.08;8.57;;;10.10;98.00;;;;;;10022330;28;20033;-59
2023/02/22 00:08:10;;;;;;;19.60;7.15;;;10.00;98.10;;;;;;10024887;28;20044;-60
2023/02/22 00:24:21;;;;;;;15.95;6.43;;;9.60;98.70;;;;;;10021151;28;19995;-59
2023/02/22 00:29:12;;;;;;;13.90;7.90;;;9.60;98.60;;;;;;10010898;28;20030;-59
2023/02/22 00:34:03;;;;;;;12.80;6.80;;;9.60;98.80;;;;;;10021329;28;20045;-61
2023/02/22 00:38:54;;;;;;;14.98;7.85;;;9.40;98.80;;;;;;10021122;28;20125;-60
2023/02/22 00:43:45;;;;;;;16.77;8.38;;;9.40;99.00;;;;;;10020959;28;20029;-58
2023/02/22 00:48:35;;;;;;;13.95;8.30;;;9.30;99.10;;;;;;10020335;28;20079;-59
2023/02/22 00:53:26;;;;;;;13.90;7.63;;;9.10;99.30;;;;;;10020623;28;20614;-60
2023/02/22 00:58:17;;;;;;;13.65;7.80;;;9.10;99.50;;;;;;10002809;28;20179;-59
2023/02/22 01:03:10;;;;;;;11.57;6.30;;;9.10;99.50;;;;;;10020571;28;20022;-59
2023/02/22 01:08:02;;;;;;;17.20;8.13;;;9.00;99.80;;;;;;10024623;28;20033;-65
2023/02/22 01:12:53;;;;;;;14.88;8.00;;;9.00;99.90;;;;;;10020558;28;20125;-66
2023/02/22 01:17:44;;;;;;;13.90;7.72;;;8.90;99.90;;;;;;10019960;28;20481;-65
2023/02/22 01:22:36;;;;;;;12.82;8.05;;;8.80;99.90;;;;;;10019831;28;20033;-65
2023/02/22 01:27:26;;;;;;;13.50;7.13;;;8.70;99.90;;;;;;10002343;28;20120;-65
2023/02/22 01:32:17;;;;;;;11.95;7.43;;;8.70;99.90;;;;;;10019348;28;20586;-61
2023/02/22 01:37:08;;;;;;;14.50;7.70;;;8.60;99.90;;;;;;10019093;28;20045;-62
2023/02/22 01:41:58;;;;;;;13.63;7.63;;;8.50;99.90;;;;;;10019161;28;20101;-62
2023/02/22 01:46:49;;;;;;;16.08;7.95;;;8.50;99.90;;;;;;10018542;28;20018;-63
2023/02/22 01:51:45;;;;;;;15.43;8.63;;;8.50;99.90;;;;;;10018459;28;20515;-59
2023/02/22 01:56:37;;;;;;;;;;;8.40;99.90;;;;;;10019328;28;20496;-59
2023/02/22 02:01:29;;;;;;;15.85;8.60;;;8.40;99.90;;;;;;10018544;28;19906;-59
2023/02/22 02:06:20;;;;;;;13.25;8.25;;;8.50;99.90;;;;;;10022458;28;20092;-60
2023/02/22 02:11:11;;;;;;;16.92;7.50;;;8.40;99.90;;;;;;10018154;28;20037;-60
2023/02/22 02:16:05;;;;;;;13.63;7.75;;;8.40;99.90;;;;;;10018345;28;20345;-60
2023/02/22 02:21:19;;;;;;;15.00;7.60;;;8.30;99.90;;;;;;10017769;28;20044;-61
2023/02/22 02:26:53;;;;;;;14.50;8.32;;;8.30;99.90;;;;;;10016314;28;20124;-59
2023/02/22 02:32:14;;;;;;;18.25;7.53;;;8.30;99.90;;;;;;10018119;28;20484;-59
2023/02/22 02:37:29;;;;;;;8.35;6.35;;;8.20;99.90;;;;;;10017549;28;20057;-60
2023/02/22 02:42:27;;;;;;;10.48;6.35;;;8.20;99.90;;;;;;10017492;28;20378;-60
2023/02/22 02:47:31;;;;;;;10.55;5.95;;;8.20;99.90;;;;;;10017383;28;20064;-58
2023/02/22 02:52:24;;;;;;;10.45;6.03;;;8.10;99.90;;;;;;9999963;28;20110;-59
2023/02/22 02:57:15;;;;;;;9.07;5.53;;;8.10;99.90;;;;;;10017777;28;20022;-59
2023/02/22 03:02:06;;;;;;;11.98;5.95;;;8.10;99.90;;;;;;9999610;28;20022;-58
2023/02/22 03:07:15;;;;;;;8.65;5.07;;;8.10;99.90;;;;;;10027828;28;20030;-59
2023/02/22 03:12:26;;;;;;;9.82;5.13;;;8.10;99.90;;;;;;10024420;28;20100;-60
2023/02/22 03:17:53;;;;;;;11.82;5.35;;;8.00;99.90;;;;;;10024392;28;20033;-60
2023/02/22 03:22:49;;;;;;;11.40;4.35;;;8.10;99.90;;;;;;10010853;28;20261;-60
2023/02/22 03:27:46;;;;;;;8.68;4.78;;;8.00;99.90;;;;;;10021469;28;20066;-60
2023/02/22 03:32:41;;;;;;;8.27;4.63;;;7.80;99.90;;;;;;10010810;28;20349;-58
2023/02/22 03:37:37;;;;;;;7.60;5.33;;;7.80;99.90;;;;;;10022474;28;20054;-64
2023/02/22 03:42:36;;;;;;;7.28;4.22;;;7.80;99.90;;;;;;10004873;28;20041;-58
2023/02/22 03:47:45;;;;;;;8.40;4.82;;;7.80;99.90;;;;;;10022657;28;20507;-59
2023/02/22 03:52:36;;;;;;;11.63;4.63;;;7.70;99.90;;;;;;10004933;28;20397;-59
2023/02/22 03:57:32;;;;;;;7.30;4.05;;;7.70;99.90;;;;;;10022716;28;20022;-59
2023/02/22 04:02:23;;;;;;;9.05;4.68;;;7.60;99.90;;;;;;10023346;28;20022;-60
2023/02/22 04:07:13;;;;;;;7.10;4.25;;;7.60;99.90;;;;;;10003773;28;20036;-60
2023/02/22 04:12:04;;;;;;;7.20;4.53;;;7.50;99.90;;;;;;10022607;28;20034;-59
2023/02/22 04:16:55;;;;;;;10.20;4.88;;;7.60;99.90;;;;;;10022460;28;20026;-59
2023/02/22 04:21:46;;;;;;;11.45;5.65;;;7.50;99.90;;;;;;10021899;28;20037;-61
2023/02/22 04:26:37;;;;;;;8.18;4.88;;;7.10;99.90;;;;;;10021851;28;20480;-62
2023/02/22 04:31:28;;;;;;;9.50;4.72;;;7.10;99.90;;;;;;10021672;28;20042;-59
2023/02/22 04:36:20;;;;;;;9.25;5.45;;;7.00;99.90;;;;;;10020715;28;20116;-62
2023/02/22 04:41:11;;;;;;;10.63;5.68;;;6.90;99.90;;;;;;10021896;28;20040;-59
2023/02/22 04:46:03;;;;;;;9.63;5.93;;;6.80;99.90;;;;;;10002879;28;20064;-60
2023/02/22 04:50:53;;;;;;;10.43;4.63;;;6.60;99.90;;;;;;10020548;28;20064;-59
2023/02/22 04:55:44;;;;;;;10.25;5.20;;;6.50;99.90;;;;;;10020589;28;20545;-58
2023/02/22 05:00:35;;;;;;;15.55;6.15;;;6.40;99.90;;;;;;10002472;28;20076;-60
2023/02/22 05:05:26;;;;;;;12.13;5.28;;;6.50;99.90;;;;;;10023521;28;20032;-60
2023/02/22 05:10:17;;;;;;;8.10;4.68;;;6.60;99.90;;;;;;10020922;28;20037;-61
2023/02/22 05:15:09;;;;;;;9.13;4.57;;;6.50;99.90;;;;;;10020349;28;20116;-60
2023/02/22 05:20:00;;;;;;;7.22;4.75;;;6.50;99.90;;;;;;10019261;28;20113;-59
2023/02/22 05:24:54;;;;;;;9.35;5.82;;;6.40;99.90;;;;;;10019748;28;20034;-60
2023/02/22 05:29:45;;;;;;;9.90;5.15;;;6.40;99.90;;;;;;10018899;28;20121;-60
2023/02/22 05:34:36;;;;;;;10.43;4.72;;;6.50;99.90;;;;;;10018744;28;20157;-64
2023/02/22 05:39:26;;;;;;;8.88;4.72;;;6.60;99.90;;;;;;10001879;28;20024;-59
2023/02/22 05:44:17;;;;;;;9.30;4.72;;;6.60;99.90;;;;;;10019297;28;20034;-59
2023/02/22 05:49:08;;;;;;;11.57;4.72;;;6.50;99.90;;;;;;10018740;28;20030;-59
2023/02/22 05:53:59;;;;;;;10.70;5.15;;;6.40;99.90;;;;;;10018888;28;20091;-58
2023/02/22 05:58:50;;;;;;;7.60;4.40;;;6.40;99.90;;;;;;10019184;28;20484;-59
2023/02/22 06:03:40;;;;;;;10.63;5.43;;;6.40;99.90;;;;;;10017281;28;20026;-59
2023/02/22 06:08:31;;;;;;;7.78;4.30;;;6.30;99.90;;;;;;10013829;28;20030;-59
2023/02/22 06:13:22;;;;;;;8.90;4.13;;;6.30;99.90;;;;;;10017791;28;20059;-59
2023/02/22 06:18:12;;;;;;;9.07;5.82;;;6.40;99.90;;;;;;10018407;28;20061;-60
2023/02/22 06:23:03;;;;;;;7.65;4.60;;;6.50;99.90;;;;;;10017626;28;20025;-58
2023/02/22 06:27:54;;;;;;;10.15;5.43;;;6.40;99.90;;;;;;10017618;28;20125;-59
2023/02/22 06:32:44;;;;;;;13.30;5.03;;;6.20;99.90;;;;;;10018306;28;20524;-59
2023/02/22 06:37:35;;;;;;;8.90;5.50;;;6.30;99.90;;;;;;10018134;28;20531;-65
2023/02/22 06:42:26;;;;;;;9.30;4.93;;;6.30;99.90;;;;;;10025885;28;20030;-66
2023/02/22 06:47:16;;;;;;;10.50;5.10;;;6.50;99.90;;;;;;10025251;28;20492;-59
2023/02/22 06:52:08;;;;;;;6.20;4.20;;;6.50;99.90;;;;;;10026222;28;20041;-59
2023/02/22 06:56:59;;;;;;;7.38;4.68;;;6.50;99.90;;;;;;10025598;28;20038;-65
2023/02/22 07:01:50;;;;;;;7.03;5.25;;;6.60;99.90;;;;;;10034052;28;20060;-59
2023/02/22 07:06:45;;;;;;;13.00;6.00;;;6.60;99.90;;;;;;10028309;28;20021;-59
2023/02/22 07:11:38;;;;;;;10.40;4.88;;;6.60;99.90;;;;;;10024888;28;20267;-62
2023/02/22 07:16:29;;;;;;;10.82;5.57;;;6.70;99.90;;;;;;10025107;28;20309;-59
2023/02/22 07:21:19;;;;;;;9.07;4.45;;;6.70;99.90;;;;;;10024663;28;20645;-60
2023/02/22 07:26:10;;;;;;;9.57;4.93;;;6.70;99.90;;;;;;10025482;28;20580;-60
2023/02/22 07:31:01;;;;;;;10.38;5.38;;;6.80;99.90;;;;;;10027012;28;20044;-59
2023/02/22 07:35:51;;;;;;;12.35;6.85;;;6.80;99.90;;;;;;10024286;28;20037;-60
2023/02/22 07:40:43;;;;;;;9.88;5.57;;;7.00;99.90;;;;;;10041519;28;20034;-59
2023/02/22 07:45:35;;;;;;;11.60;5.90;;;7.10;99.90;;;;;;10017192;28;20033;-60
2023/02/22 07:50:31;;;;;;;7.72;4.97;;;7.10;99.90;;;;;;10034116;28;20041;-59
2023/02/22 07:55:24;;;;;;;11.57;5.40;;;7.20;99.90;;;;;;10040447;28;20136;-60
2023/02/22 08:00:22;;;;;;;9.70;5.60;;;7.30;99.90;;;;;;10036700;28;20017;-58
2023/02/22 08:05:13;;;;;;;11.10;5.70;;;7.70;99.90;;;;;;10040651;28;20018;-60
2023/02/22 08:10:06;;;;;;;9.70;5.78;;;8.00;99.90;;;;;;10034640;28;20161;-59
2023/02/22 08:14:57;;;;;;;12.07;5.50;;;8.20;99.90;;;;;;10038528;28;20542;-60
2023/02/22 08:19:48;;;;;;;13.05;5.57;;;8.10;99.90;;;;;;10038044;28;20065;-60
2023/02/22 08:24:39;;;;;;;6.50;4.97;;;8.20;99.90;;;;;;10040543;28;20028;-59
2023/02/22 08:29:32;;;;;;;9.32;5.57;;;8.20;99.90;;;;;;10040218;28;20021;-59
2023/02/22 08:34:23;;;;;;;10.18;5.65;;;8.20;99.90;;;;;;10040837;28;20065;-60
2023/02/22 08:39:14;;;;;;;8.98;5.55;;;8.20;99.90;;;;;;10038377;28;20029;-62
2023/02/22 08:44:05;;;;;;;10.35;5.07;;;8.50;99.90;;;;;;10037084;28;20017;-60
2023/02/22 08:48:55;;;;;;;27.75;16.33;;;8.70;99.90;;;;;;10036796;28;20034;-62
2023/02/22 08:53:46;;;;;;;18.38;9.02;;;9.10;99.90;;;;;;10033251;28;20034;-60
2023/02/22 08:58:37;;;;;;;8.85;5.50;;;9.20;99.90;;;;;;10039068;28;20062;-59
2023/02/22 09:03:27;;;;;;;9.30;5.00;;;9.50;99.90;;;;;;10036276;28;20018;-56
2023/02/22 09:08:18;;;;;;;6.35;4.85;;;9.60;99.90;;;;;;10038497;28;20026;-56
2023/02/22 09:13:09;;;;;;;7.95;5.22;;;9.60;99.90;;;;;;10037514;28;20503;-54
2023/02/22 09:18:00;;;;;;;8.73;5.28;;;9.70;99.90;;;;;;10035747;28;20572;-57
2023/02/22 09:22:52;;;;;;;12.38;5.45;;;9.80;99.90;;;;;;10037158;28;20143;-56
2023/02/22 09:27:43;;;;;;;11.20;5.47;;;10.00;99.90;;;;;;10037149;28;20037;-57
2023/02/22 09:32:35;;;;;;;9.82;5.95;;;10.10;99.90;;;;;;10039183;28;20033;-59
2023/02/22 09:37:26;;;;;;;6.20;4.70;;;10.40;99.90;;;;;;10036785;28;20133;-59
2023/02/22 09:42:30;;;;;;;9.65;4.88;;;10.60;99.90;;;;;;10034659;28;20105;-57
2023/02/22 09:47:41;;;;;;;8.45;4.93;;;10.60;99.90;;;;;;10032745;28;20488;-62
2023/02/22 09:52:38;;;;;;;9.63;4.95;;;10.90;99.90;;;;;;10021315;28;20321;-61
2023/02/22 09:57:40;;;;;;;10.25;6.03;;;10.90;99.90;;;;;;10016210;28;20041;-61
2023/02/22 10:02:40;;;;;;;10.98;4.78;;;11.00;99.90;;;;;;10016890;28;20492;-61
2023/02/22 10:07:44;;;;;;;9.45;5.45;;;11.00;99.90;;;;;;10021618;28;20397;-65
2023/02/22 10:13:00;;;;;;;12.38;6.35;;;11.00;99.90;;;;;;10016838;28;20519;-60
2023/02/22 10:17:59;;;;;;;8.90;5.63;;;11.20;99.90;;;;;;10015962;28;20036;-61
2023/02/22 10:23:23;;;;;;;8.88;5.68;;;11.30;99.90;;;;;;10015196;28;20065;-62
2023/02/22 10:28:23;;;;;;;10.93;5.55;;;11.40;99.90;;;;;;10014986;28;20026;-64
2023/02/22 10:33:44;;;;;;;10.55;5.18;;;11.40;99.90;;;;;;10018777;28;20073;-63
2023/02/22 10:38:37;;;;;;;11.43;6.15;;;11.50;99.90;;;;;;10012398;28;20269;-60
2023/02/22 10:43:29;;;;;;;14.05;6.38;;;11.50;99.90;;;;;;10018616;28;20030;-62
2023/02/22 10:48:23;;;;;;;9.75;5.50;;;11.70;99.90;;;;;;10017368;28;20045;-59
2023/02/22 10:53:14;;;;;;;7.97;5.13;;;11.80;99.90;;;;;;10018204;28;20037;-60
2023/02/22 10:58:07;;;;;;;9.90;5.60;;;11.90;99.90;;;;;;10019373;28;20029;-62
2023/02/22 11:03:15;;;;;;;8.77;5.47;;;12.00;99.90;;;;;;10017625;28;20389;-61
2023/02/22 11:08:17;;;;;;;9.48;5.40;;;12.30;99.90;;;;;;10015757;28;20026;-60
2023/02/22 11:13:26;;;;;;;7.07;5.20;;;12.60;99.90;;;;;;10000587;28;20528;-60
2023/02/22 11:18:30;;;;;;;9.07;5.70;;;12.80;99.90;;;;;;9999782;28;20030;-61
2023/02/22 11:23:22;;;;;;;10.73;6.18;;;12.80;99.90;;;;;;10017789;28;20408;-62
2023/02/22 11:28:29;;;;;;;11.52;5.55;;;13.00;99.90;;;;;;10023112;28;20029;-61
2023/02/22 11:33:23;;;;;;;14.00;7.63;;;13.20;99.90;;;;;;10024030;28;20026;-60
2023/02/22 11:38:20;;;;;;;11.43;6.45;;;13.40;99.90;;;;;;10023892;28;20049;-61
2023/02/22 11:43:17;;;;;;;13.50;5.78;;;13.30;99.90;;;;;;10021226;28;20049;-59
2023/02/22 11:48:19;;;;;;;11.68;5.82;;;13.40;99.90;;;;;;10005857;28;20054;-60
2023/02/22 11:53:29;;;;;;;11.57;8.07;;;13.30;99.90;;;;;;10023513;28;20054;-61
2023/02/22 11:58:35;;;;;;;13.05;7.05;;;13.30;99.90;;;;;;10023620;28;20029;-60
2023/02/22 12:03:45;;;;;;;10.10;6.57;;;13.20;99.90;;;;;;10023891;28;20396;-61
2023/02/22 12:09:17;;;;;;;10.15;6.43;;;13.30;99.90;;;;;;10025679;28;20022;-60
2023/02/22 12:14:30;;;;;;;10.18;6.45;;;13.60;99.90;;;;;;10023307;28;20144;-61
2023/02/22 12:19:35;;;;;;;12.45;6.70;;;13.70;99.90;;;;;;10023199;28;20525;-60
2023/02/22 12:24:55;;;;;;;11.45;6.82;;;13.80;99.90;;;;;;10023288;28;20100;-61
2023/02/22 12:29:51;;;;;;;13.00;6.05;;;13.90;99.90;;;;;;10020558;28;20042;-61
2023/02/22 12:34:54;;;;;;;11.02;7.57;;;14.10;99.90;;;;;;10022999;28;20058;-61
2023/02/22 12:39:54;;;;;;;13.93;6.82;;;14.30;99.90;;;;;;10022798;28;20022;-59
2023/02/22 12:44:52;;;;;;;9.30;6.40;;;14.40;99.90;;;;;;10021890;28;20038;-63
2023/02/22 12:49:59;;;;;;;8.70;6.00;;;14.50;99.90;;;;;;10021156;28;20037;-61
2023/02/22 12:54:58;;;;;;;9.65;5.55;;;14.80;99.60;;;;;;10021634;28;20034;-61
2023/02/22 12:59:58;;;;;;;13.93;6.80;;;14.80;99.50;;;;;;10003881;28;20030;-62
2023/02/22 13:04:49;;;;;;;15.70;8.05;;;15.00;99.40;;;;;;10024054;28;20014;-61
2023/02/22 13:10:01;;;;;;;10.85;6.50;;;15.00;99.30;;;;;;10020858;28;20512;-61
2023/02/22 13:14:57;;;;;;;12.95;6.57;;;15.40;99.10;;;;;;10021327;28;20081;-60
2023/02/22 13:20:16;;;;;;;12.68;5.82;;;15.60;99.00;;;;;;10020525;28;20045;-60
2023/02/22 13:25:16;;;;;;;12.75;6.32;;;15.60;98.80;;;;;;10017778;28;20030;-59
2023/02/22 13:30:20;;;;;;;14.10;7.05;;;15.50;98.90;;;;;;10020485;28;20065;-60
2023/02/22 13:35:33;;;;;;;10.85;6.55;;;15.30;99.00;;;;;;10007850;28;20065;-61
2023/02/22 13:40:45;;;;;;;13.02;6.47;;;15.40;98.80;;;;;;10020358;28;20511;-61
2023/02/22 13:46:16;;;;;;;13.93;7.22;;;15.40;98.90;;;;;;10020185;28;20030;-61
2023/02/22 13:51:13;;;;;;;13.20;7.03;;;15.40;98.70;;;;;;9979518;28;20038;-60
2023/02/22 13:56:04;;;;;;;11.98;6.93;;;15.30;98.80;;;;;;10019084;28;20085;-60
2023/02/22 14:00:58;;;;;;;16.77;9.07;;;15.30;98.90;;;;;;10019326;28;20132;-63
2023/02/22 14:05:55;;;;;;;14.07;8.27;;;15.30;98.80;;;;;;10020665;28;20029;-62
2023/02/22 14:10:58;;;;;;;14.40;6.97;;;15.30;98.80;;;;;;10019012;28;20403;-60
2023/02/22 14:16:03;;;;;;;13.20;7.80;;;15.20;98.70;;;;;;10019047;28;20030;-60
2023/02/22 14:21:03;;;;;;;;;;;15.10;98.80;;;;;;10019202;28;20559;-60
2023/02/22 14:25:54;;;;;;;14.07;7.38;;;15.20;98.80;;;;;;10018772;28;19905;-60
2023/02/22 14:30:45;;;;;;;13.55;6.30;;;15.20;98.80;;;;;;10018239;28;20033;-61
2023/02/22 14:35:40;;;;;;;10.25;5.90;;;15.40;98.80;;;;;;10019036;28;20041;-60
2023/02/22 14:40:35;;;;;;;14.25;6.88;;;15.50;98.80;;;;;;10018770;28;20045;-59
2023/02/22 14:45:32;;;;;;;13.90;8.35;;;15.50;98.70;;;;;;10018716;28;20030;-60
2023/02/22 14:50:34;;;;;;;11.32;7.00;;;15.60;98.70;;;;;;10018178;28;20045;-60
2023/02/22 14:55:26;;;;;;;12.93;7.32;;;15.60;98.70;;;;;;10000890;28;20018;-60
2023/02/22 15:00:18;;;;;;;12.65;6.55;;;15.50;98.70;;;;;;10021030;28;20034;-60
2023/02/22 15:05:18;;;;;;;10.13;7.20;;;15.50;98.70;;;;;;10018751;28;20076;-61
2023/02/22 15:10:37;;;;;;;13.50;7.53;;;15.30;98.80;;;;;;10013850;28;20072;-60
2023/02/22 15:15:30;;;;;;;13.98;7.20;;;15.10;98.90;;;;;;10021837;28;20046;-60
2023/02/22 15:20:23;;;;;;;12.35;6.95;;;15.00;98.80;;;;;;10021951;28;20594;-60
2023/02/22 15:25:15;;;;;;;11.95;6.95;;;14.80;98.90;;;;;;10019833;28;20026;-60
2023/02/22 15:30:19;;;;;;;13.88;7.82;;;14.60;98.90;;;;;;10020253;28;20070;-60
2023/02/22 15:35:16;;;;;;;13.75;6.80;;;14.60;98.90;;;;;;10019873;28;20045;-59
2023/02/22 15:40:13;;;;;;;13.48;7.53;;;14.50;99.00;;;;;;10020791;28;20080;-60
2023/02/22 15:45:04;;;;;;;12.88;6.97;;;14.50;99.00;;;;;;10017169;28;20030;-63
2023/02/22 15:50:19;;;;;;;13.52;7.25;;;14.40;99.10;;;;;;10001071;28;20042;-60
2023/02/22 15:55:10;;;;;;;12.63;6.88;;;14.30;99.20;;;;;;10019450;28;20034;-61
2023/02/22 16:00:04;;;;;;;11.48;6.60;;;14.20;99.20;;;;;;10018852;28;20026;-60
2023/02/22 16:05:09;;;;;;;14.07;6.75;;;14.20;99.20;;;;;;10019253;28;20101;-61
2023/02/22 16:10:06;;;;;;;14.03;7.57;;;14.10;99.30;;;;;;10021089;28;20038;-61
2023/02/22 16:14:58;;;;;;;13.02;7.45;;;14.10;99.30;;;;;;10018948;28;20033;-60
2023/02/22 16:19:52;;;;;;;16.23;7.55;;;14.00;99.40;;;;;;10015862;28;20029;-59
2023/02/22 16:24:50;;;;;;;14.05;7.97;;;13.90;99.50;;;;;;10018589;28;20385;-60
2023/02/22 16:29:41;;;;;;;13.68;6.85;;;13.90;99.50;;;;;;10020932;28;20040;-60
2023/02/22 16:34:31;;;;;;;13.35;7.28;;;13.80;99.60;;;;;;10018136;28;20121;-59
2023/02/22 16:39:28;;;;;;;16.45;8.27;;;13.80;99.70;;;;;;10017755;28;20108;-58
2023/02/22 16:44:19;;;;;;;11.32;6.97;;;13.70;99.70;;;;;;10017318;28;20034;-57
2023/02/22 16:49:11;;;;;;;14.85;7.75;;;13.70;99.80;;;;;;10016110;28;20440;-55
2023/02/22 16:54:02;;;;;;;13.40;7.03;;;13.60;99.90;;;;;;10016487;28;20040;-59
2023/02/22 16:58:52;;;;;;;17.08;8.65;;;13.70;99.90;;;;;;10017282;28;20022;-58
2023/02/22 17:03:43;;;;;;;17.13;8.07;;;13.60;99.90;;;;;;9998938;28;20065;-58
2023/02/22 17:08:34;;;;;;;14.52;8.48;;;13.60;99.90;;;;;;10016960;28;20033;-58
2023/02/22 17:13:26;;;;;;;13.52;7.95;;;13.60;99.90;;;;;;10015652;28;20038;-56
2023/02/22 17:18:21;;;;;;;16.67;8.90;;;13.60;99.90;;;;;;10011562;28;20360;-55
2023/02/22 17:23:12;;;;;;;15.67;9.20;;;13.50;99.90;;;;;;10011515;28;20030;-54
2023/02/22 17:28:04;;;;;;;15.15;8.43;;;13.40;99.90;;;;;;10015943;28;20033;-58
2023/02/22 17:33:02;;;;;;;16.90;8.35;;;13.30;99.90;;;;;;10018168;28;20092;-57
2023/02/22 17:37:52;;;;;;;21.88;9.40;;;13.30;99.90;;;;;;10004624;28;20034;-58
2023/02/22 17:42:44;;;;;;;16.83;9.35;;;13.30;99.90;;;;;;10014439;28;20042;-55
2023/02/22 17:47:35;;;;;;;18.70;9.35;;;13.20;99.90;;;;;;10013767;28;20018;-61
2023/02/22 17:52:28;;;;;;;20.40;10.52;;;13.20;99.90;;;;;;10014624;28;20056;-57
2023/02/22 17:57:20;;;;;;;17.92;9.52;;;13.10;99.90;;;;;;9998184;28;20077;-56
2023/02/22 18:02:11;;;;;;;18.23;9.23;;;13.10;99.90;;;;;;10016794;28;20030;-59
2023/02/22 18:07:03;;;;;;;22.27;10.23;;;13.10;99.90;;;;;;10015594;28;20030;-61
2023/02/22 18:11:53;;;;;;;17.48;10.00;;;13.10;99.90;;;;;;10015604;28;20042;-59
2023/02/22 18:16:46;;;;;;;15.95;8.40;;;13.00;99.90;;;;;;10016502;28;20037;-61
2023/02/22 18:21:36;;;;;;;20.83;10.35;;;13.00;99.90;;;;;;10016197;28;20018;-62
2023/02/22 18:26:27;;;;;;;14.60;7.57;;;12.90;99.90;;;;;;10016945;28;20022;-60
2023/02/22 18:31:20;;;;;;;16.92;8.63;;;12.90;99.90;;;;;;10016995;28;20192;-59
2023/02/22 18:36:11;;;;;;;18.58;9.63;;;12.90;99.90;;;;;;10019336;28;20504;-58
2023/02/22 18:41:05;;;;;;;21.35;9.18;;;12.80;99.90;;;;;;10024287;28;20432;-58
2023/02/22 18:46:17;;;;;;;20.40;11.00;;;12.80;99.90;;;;;;10024107;28;20026;-58
2023/02/22 18:51:11;;;;;;;16.67;9.82;;;12.80;99.90;;;;;;10023550;28;20499;-59
2023/02/22 18:56:07;;;;;;;17.42;9.40;;;12.80;99.90;;;;;;10023054;28;20028;-60
2023/02/22 19:01:02;;;;;;;24.20;10.23;;;12.80;99.90;;;;;;10023553;28;20036;-59
2023/02/22 19:05:54;;;;;;;23.02;10.70;;;12.80;99.90;;;;;;10022816;28;20026;-59
2023/02/22 19:10:48;;;;;;;20.65;10.13;;;12.70;99.90;;;;;;10022587;28;20042;-58
2023/02/22 19:15:39;;;;;;;30.55;9.52;;;12.70;99.90;;;;;;10022525;28;20026;-59
2023/02/22 19:20:32;;;;;;;21.50;9.32;;;12.80;99.90;;;;;;10023013;28;20037;-61
2023/02/22 19:25:22;;;;;;;22.83;9.32;;;12.80;99.90;;;;;;10021841;28;20030;-59
2023/02/22 19:30:13;;;;;;;18.13;9.38;;;12.80;99.90;;;;;;10021421;28;20029;-58
2023/02/22 19:35:05;;;;;;;19.38;9.57;;;12.70;99.90;;;;;;10021035;28;20524;-58
2023/02/22 19:39:55;;;;;;;19.58;8.75;;;12.60;99.90;;;;;;10021705;28;20029;-58
2023/02/22 19:44:47;;;;;;;19.52;8.68;;;12.70;99.90;;;;;;10020894;28;20034;-58
2023/02/22 19:49:39;;;;;;;21.65;8.57;;;12.60;99.90;;;;;;9995163;28;20021;-60
2023/02/22 19:54:30;;;;;;;19.27;8.60;;;12.60;99.90;;;;;;10021482;28;20112;-57
2023/02/22 19:59:22;;;;;;;18.00;9.27;;;12.60;99.90;;;;;;10013083;28;20105;-59
2023/02/22 20:04:24;;;;;;;20.15;9.20;;;12.70;99.90;;;;;;10016452;28;20588;-60
2023/02/22 20:09:22;;;;;;;22.50;8.20;;;12.80;99.90;;;;;;10018012;28;20034;-61
2023/02/22 20:14:19;;;;;;;22.52;9.65;;;12.80;99.90;;;;;;10019710;28;20472;-58
2023/02/22 20:19:12;;;;;;;18.38;8.35;;;12.70;99.90;;;;;;10018749;28;20030;-62
2023/02/22 20:24:07;;;;;;;19.23;8.75;;;12.80;99.90;;;;;;10017374;28;20508;-62
2023/02/22 20:28:59;;;;;;;18.77;9.03;;;12.80;99.90;;;;;;10018154;28;20133;-61
2023/02/22 20:33:54;;;;;;;20.30;8.32;;;12.80;99.90;;;;;;10016380;28;20060;-63
2023/02/22 20:38:45;;;;;;;17.83;8.77;;;12.80;99.90;;;;;;10017933;28;20299;-59
2023/02/22 20:43:36;;;;;;;23.08;9.65;;;12.80;99.90;;;;;;10001609;28;20029;-61
2023/02/22 20:48:27;;;;;;;18.98;10.50;;;12.80;99.90;;;;;;10011703;28;20498;-63
2023/02/22 20:53:18;;;;;;;20.58;9.88;;;12.80;99.90;;;;;;9988146;28;20038;-63
2023/02/22 20:58:09;;;;;;;23.60;10.52;;;12.80;99.90;;;;;;10012738;28;20022;-62
2023/02/22 21:02:59;;;;;;;23.02;10.23;;;12.70;99.90;;;;;;10012596;28;20040;-59
2023/02/22 21:07:50;;;;;;;20.52;10.20;;;12.70;99.90;;;;;;10015771;28;20038;-64
2023/02/22 21:12:41;;;;;;;18.92;10.60;;;12.70;99.90;;;;;;9996417;28;20049;-60
2023/02/22 21:17:32;;;;;;;21.45;10.65;;;12.60;99.90;;;;;;9990619;28;20160;-60
2023/02/22 21:22:24;;;;;;;20.23;9.45;;;12.50;99.90;;;;;;9986253;28;20109;-62
2023/02/22 21:27:15;;;;;;;14.82;8.65;;;12.40;99.90;;;;;;9989504;28;20459;-58
2023/02/22 21:32:07;;;;;;;17.58;9.48;;;12.40;99.90;;;;;;10004532;28;20076;-59
2023/02/22 21:36:57;;;;;;;19.00;9.63;;;12.30;99.90;;;;;;10018850;28;20050;-62
2023/02/22 21:41:50;;;;;;;16.30;8.35;;;12.30;99.90;;;;;;10018364;28;20101;-60
2023/02/22 21:46:41;;;;;;;16.25;8.43;;;12.30;99.90;;;;;;10014370;28;20033;-65
2023/02/22 21:51:33;;;;;;;15.73;8.73;;;12.30;99.90;;;;;;10013389;28;20500;-57
2023/02/22 21:56:27;;;;;;;15.25;8.45;;;12.30;99.90;;;;;;10014876;28;20025;-60
2023/02/22 22:01:18;;;;;;;18.83;8.73;;;12.20;99.90;;;;;;10014644;28;20543;-59
2023/02/22 22:06:09;;;;;;;17.67;9.02;;;12.20;99.90;;;;;;10014723;28;20109;-57
2023/02/22 22:11:00;;;;;;;15.70;7.93;;;12.10;99.90;;;;;;10013923;28;20029;-59
2023/02/22 22:15:51;;;;;;;19.38;9.85;;;12.10;99.90;;;;;;10013775;28;20064;-58
2023/02/22 22:20:43;;;;;;;15.27;8.93;;;12.20;99.90;;;;;;10016557;28;20060;-58
2023/02/22 22:25:37;;;;;;;17.85;9.38;;;12.10;99.90;;;;;;10011305;28;20161;-62
2023/02/22 22:30:28;;;;;;;15.48;7.93;;;12.10;99.90;;;;;;10013887;28;20408;-57
2023/02/22 22:35:18;;;;;;;18.48;9.05;;;12.20;99.90;;;;;;10013910;28;20046;-55
2023/02/22 22:40:14;;;;;;;17.00;8.35;;;12.10;99.90;;;;;;10013791;28;20022;-53
2023/02/22 22:45:05;;;;;;;;;;;12.10;99.90;;;;;;10014188;28;20057;-60
2023/02/22 22:50:00;;;;;;;17.77;8.68;;;12.10;99.90;;;;;;10012836;28;20327;-59
2023/02/22 22:54:50;;;;;;;21.00;9.67;;;12.00;99.90;;;;;;10013474;28;20519;-56
2023/02/22 22:59:41;;;;;;;19.50;8.93;;;12.00;99.90;;;;;;10014633;28;20014;-60
2023/02/22 23:04:32;;;;;;;15.77;8.27;;;12.00;99.90;;;;;;9979341;28;20061;-59
2023/02/22 23:09:24;;;;;;;17.65;8.65;;;11.90;99.90;;;;;;10013988;28;20022;-60
2023/02/22 23:14:19;;;;;;;15.65;8.43;;;11.90;99.90;;;;;;10013634;28;20037;-60
2023/02/22 23:19:10;;;;;;;14.35;8.35;;;11.90;99.90;;;;;;10013381;28;20112;-60
2023/02/22 23:24:05;;;;;;;17.83;8.82;;;11.80;99.90;;;;;;10045991;22;20046;-65
2023/02/22 23:28:57;;;;;;;16.25;9.25;;;11.80;99.90;;;;;;10037999;28;20455;-69
2023/02/22 23:33:48;;;;;;;15.18;8.73;;;11.80;99.90;;;;;;10030954;28;20044;-68
2023/02/22 23:38:41;;;;;;;15.70;7.70;;;11.90;99.90;;;;;;10034359;28;20101;-66
2023/02/22 23:43:31;;;;;;;13.63;7.97;;;11.80;99.90;;;;;;10027858;28;20397;-67
2023/02/22 23:48:22;;;;;;;17.02;8.77;;;11.80;99.90;;;;;;10025921;28;20022;-64
2023/02/22 23:53:14;;;;;;;16.77;8.60;;;11.70;99.90;;;;;;10039704;28;20083;-72
2023/02/22 23:58:06;;;;;;;16.08;8.73;;;11.70;99.90;;;;;;10016120;28;20036;-68
